sensor_id;sensor_type;location;lat;lon;timestamp;P1;durP1;ratioP1;P2;durP2;ratioP2
85871;SDS011;76390;44.082;3.046;2024-02-23T00:00:37;9.82;;;3.55;;
85871;SDS011;76390;44.082;3.046;2024-02-23T00:03:03;4.32;;;1.48;;
85871;SDS011;76390;44.082;3.046;2024-02-23T00:05:28;4.15;;;1.20;;
85871;SDS011;76390;44.082;3.046;2024-02-23T00:07:54;3.97;;;1.45;;
85871;SDS011;76390;44.082;3.046;2024-02-23T00:10:19;3.75;;;1.20;;
85871;SDS011;76390;44.082;3.046;2024-02-23T00:12:45;5.68;;;1.00;;
85871;SDS011;76390;44.082;3.046;2024-02-23T00:15:12;8.45;;;1.25;;
85871;SDS011;76390;44.082;3.046;2024-02-23T00:17:38;7.82;;;1.58;;
85871;SDS011;76390;44.082;3.046;2024-02-23T00:20:04;7.10;;;2.38;;
85871;SDS011;76390;44.082;3.046;2024-02-23T00:22:32;5.43;;;2.00;;
85871;SDS011;76390;44.082;3.046;2024-02-23T00:24:59;4.10;;;1.40;;
85871;SDS011;76390;44.082;3.046;2024-02-23T00:27:24;6.78;;;1.45;;
85871;SDS011;76390;44.082;3.046;2024-02-23T00:29:49;4.53;;;1.10;;
85871;SDS011;76390;44.082;3.046;2024-02-23T00:32:15;5.82;;;1.20;;
85871;SDS011;76390;44.082;3.046;2024-02-23T00:34:40;4.78;;;1.42;;
85871;SDS011;76390;44.082;3.046;2024-02-23T00:37:06;5.03;;;1.95;;
85871;SDS011;76390;44.082;3.046;2024-02-23T00:39:33;8.45;;;2.28;;
85871;SDS011;76390;44.082;3.046;2024-02-23T00:41:58;4.38;;;1.85;;
85871;SDS011;76390;44.082;3.046;2024-02-23T00:44:24;5.65;;;1.92;;
85871;SDS011;76390;44.082;3.046;2024-02-23T00:46:49;3.88;;;1.33;;
85871;SDS011;76390;44.082;3.046;2024-02-23T00:49:15;4.05;;;1.70;;
85871;SDS011;76390;44.082;3.046;2024-02-23T00:51:40;10.90;;;6.30;;
85871;SDS011;76390;44.082;3.046;2024-02-23T00:54:06;10.35;;;5.30;;
85871;SDS011;76390;44.082;3.046;2024-02-23T00:56:33;11.35;;;5.85;;
85871;SDS011;76390;44.082;3.046;2024-02-23T00:58:58;8.80;;;4.22;;
85871;SDS011;76390;44.082;3.046;2024-02-23T01:01:24;6.97;;;3.00;;
85871;SDS011;76390;44.082;3.046;2024-02-23T01:03:51;7.05;;;2.00;;
85871;SDS011;76390;44.082;3.046;2024-02-23T01:06:17;5.18;;;1.73;;
85871;SDS011;76390;44.082;3.046;2024-02-23T01:08:42;8.93;;;2.15;;
85871;SDS011;76390;44.082;3.046;2024-02-23T01:11:08;13.65;;;6.40;;
85871;SDS011;76390;44.082;3.046;2024-02-23T01:13:34;14.65;;;5.80;;
85871;SDS011;76390;44.082;3.046;2024-02-23T01:15:59;9.23;;;3.83;;
85871;SDS011;76390;44.082;3.046;2024-02-23T01:18:25;10.07;;;3.92;;
85871;SDS011;76390;44.082;3.046;2024-02-23T01:20:51;10.98;;;4.25;;
85871;SDS011;76390;44.082;3.046;2024-02-23T01:23:16;6.25;;;3.80;;
85871;SDS011;76390;44.082;3.046;2024-02-23T01:25:42;7.30;;;2.63;;
85871;SDS011;76390;44.082;3.046;2024-02-23T01:28:07;7.57;;;3.00;;
85871;SDS011;76390;44.082;3.046;2024-02-23T01:30:33;12.82;;;2.85;;
85871;SDS011;76390;44.082;3.046;2024-02-23T01:32:58;9.48;;;2.83;;
85871;SDS011;76390;44.082;3.046;2024-02-23T01:35:23;8.63;;;2.08;;
85871;SDS011;76390;44.082;3.046;2024-02-23T01:37:49;5.53;;;1.75;;
85871;SDS011;76390;44.082;3.046;2024-02-23T01:40:14;6.50;;;2.10;;
85871;SDS011;76390;44.082;3.046;2024-02-23T01:42:40;7.35;;;2.17;;
85871;SDS011;76390;44.082;3.046;2024-02-23T01:45:05;6.47;;;2.42;;
85871;SDS011;76390;44.082;3.046;2024-02-23T01:47:32;5.32;;;2.13;;
85871;SDS011;76390;44.082;3.046;2024-02-23T01:49:58;9.38;;;2.00;;
85871;SDS011;76390;44.082;3.046;2024-02-23T01:52:24;7.28;;;2.50;;
85871;SDS011;76390;44.082;3.046;2024-02-23T01:54:50;10.35;;;2.03;;
85871;SDS011;76390;44.082;3.046;2024-02-23T01:57:16;8.10;;;1.80;;
85871;SDS011;76390;44.082;3.046;2024-02-23T01:59:42;8.23;;;1.77;;
85871;SDS011;76390;44.082;3.046;2024-02-23T02:02:08;6.07;;;1.30;;
85871;SDS011;76390;44.082;3.046;2024-02-23T02:04:34;6.03;;;1.35;;
85871;SDS011;76390;44.082;3.046;2024-02-23T02:07:00;5.97;;;1.45;;
85871;SDS011;76390;44.082;3.046;2024-02-23T02:09:26;7.00;;;1.58;;
85871;SDS011;76390;44.082;3.046;2024-02-23T02:11:51;4.22;;;1.00;;
85871;SDS011;76390;44.082;3.046;2024-02-23T02:14:17;10.82;;;1.40;;
85871;SDS011;76390;44.082;3.046;2024-02-23T02:16:43;8.93;;;1.80;;
85871;SDS011;76390;44.082;3.046;2024-02-23T02:19:09;4.40;;;1.27;;
85871;SDS011;76390;44.082;3.046;2024-02-23T02:21:39;9.18;;;1.30;;
85871;SDS011;76390;44.082;3.046;2024-02-23T02:24:04;3.88;;;1.40;;
85871;SDS011;76390;44.082;3.046;2024-02-23T02:26:31;6.28;;;1.58;;
85871;SDS011;76390;44.082;3.046;2024-02-23T02:28:57;6.72;;;1.45;;
85871;SDS011;76390;44.082;3.046;2024-02-23T02:31:22;4.93;;;1.13;;
85871;SDS011;76390;44.082;3.046;2024-02-23T02:33:48;7.75;;;1.23;;
85871;SDS011;76390;44.082;3.046;2024-02-23T02:36:13;3.33;;;0.95;;
85871;SDS011;76390;44.082;3.046;2024-02-23T02:38:39;5.78;;;1.27;;
85871;SDS011;76390;44.082;3.046;2024-02-23T02:41:05;5.78;;;0.98;;
85871;SDS011;76390;44.082;3.046;2024-02-23T02:43:30;7.05;;;1.75;;
85871;SDS011;76390;44.082;3.046;2024-02-23T02:45:56;6.88;;;1.85;;
85871;SDS011;76390;44.082;3.046;2024-02-23T02:48:22;6.70;;;1.50;;
85871;SDS011;76390;44.082;3.046;2024-02-23T02:50:48;8.23;;;1.10;;
85871;SDS011;76390;44.082;3.046;2024-02-23T02:53:15;4.38;;;0.95;;
85871;SDS011;76390;44.082;3.046;2024-02-23T02:55:43;3.20;;;0.82;;
85871;SDS011;76390;44.082;3.046;2024-02-23T02:58:12;6.90;;;1.13;;
85871;SDS011;76390;44.082;3.046;2024-02-23T03:00:38;7.22;;;1.10;;
85871;SDS011;76390;44.082;3.046;2024-02-23T03:03:04;4.85;;;1.40;;
85871;SDS011;76390;44.082;3.046;2024-02-23T03:05:29;4.10;;;1.00;;
85871;SDS011;76390;44.082;3.046;2024-02-23T03:07:55;7.43;;;1.40;;
85871;SDS011;76390;44.082;3.046;2024-02-23T03:10:20;6.07;;;1.17;;
85871;SDS011;76390;44.082;3.046;2024-02-23T03:12:46;4.53;;;1.23;;
85871;SDS011;76390;44.082;3.046;2024-02-23T03:15:11;3.80;;;0.93;;
85871;SDS011;76390;44.082;3.046;2024-02-23T03:17:37;3.08;;;1.65;;
85871;SDS011;76390;44.082;3.046;2024-02-23T03:20:03;5.30;;;1.08;;
85871;SDS011;76390;44.082;3.046;2024-02-23T03:22:36;6.53;;;1.65;;
85871;SDS011;76390;44.082;3.046;2024-02-23T03:25:02;7.15;;;1.00;;
85871;SDS011;76390;44.082;3.046;2024-02-23T03:27:33;5.93;;;0.77;;
85871;SDS011;76390;44.082;3.046;2024-02-23T03:29:59;4.20;;;1.40;;
85871;SDS011;76390;44.082;3.046;2024-02-23T03:32:25;6.63;;;1.13;;
85871;SDS011;76390;44.082;3.046;2024-02-23T03:34:50;5.05;;;1.67;;
85871;SDS011;76390;44.082;3.046;2024-02-23T03:37:15;2.80;;;1.00;;
85871;SDS011;76390;44.082;3.046;2024-02-23T03:39:41;2.95;;;1.08;;
85871;SDS011;76390;44.082;3.046;2024-02-23T03:42:06;6.20;;;1.20;;
85871;SDS011;76390;44.082;3.046;2024-02-23T03:44:32;3.13;;;1.15;;
85871;SDS011;76390;44.082;3.046;2024-02-23T03:46:57;3.80;;;1.25;;
85871;SDS011;76390;44.082;3.046;2024-02-23T03:49:23;6.25;;;1.40;;
85871;SDS011;76390;44.082;3.046;2024-02-23T03:51:48;3.08;;;0.68;;
85871;SDS011;76390;44.082;3.046;2024-02-23T03:54:14;2.90;;;1.00;;
85871;SDS011;76390;44.082;3.046;2024-02-23T03:56:39;2.75;;;0.90;;
85871;SDS011;76390;44.082;3.046;2024-02-23T03:59:09;2.58;;;1.10;;
85871;SDS011;76390;44.082;3.046;2024-02-23T04:01:35;4.93;;;1.30;;
85871;SDS011;76390;44.082;3.046;2024-02-23T04:04:04;6.53;;;1.25;;
85871;SDS011;76390;44.082;3.046;2024-02-23T04:06:30;5.43;;;1.38;;
85871;SDS011;76390;44.082;3.046;2024-02-23T04:08:56;2.50;;;1.23;;
85871;SDS011;76390;44.082;3.046;2024-02-23T04:11:21;3.20;;;1.15;;
85871;SDS011;76390;44.082;3.046;2024-02-23T04:13:47;4.95;;;1.67;;
85871;SDS011;76390;44.082;3.046;2024-02-23T04:16:12;1.83;;;0.95;;
85871;SDS011;76390;44.082;3.046;2024-02-23T04:18:38;3.72;;;1.10;;
85871;SDS011;76390;44.082;3.046;2024-02-23T04:21:03;5.97;;;1.60;;
85871;SDS011;76390;44.082;3.046;2024-02-23T04:23:29;6.82;;;1.70;;
85871;SDS011;76390;44.082;3.046;2024-02-23T04:25:55;3.33;;;1.52;;
85871;SDS011;76390;44.082;3.046;2024-02-23T04:28:21;3.42;;;1.20;;
85871;SDS011;76390;44.082;3.046;2024-02-23T04:30:46;5.28;;;1.15;;
85871;SDS011;76390;44.082;3.046;2024-02-23T04:33:12;4.82;;;1.42;;
85871;SDS011;76390;44.082;3.046;2024-02-23T04:35:37;2.33;;;1.08;;
85871;SDS011;76390;44.082;3.046;2024-02-23T04:38:03;8.57;;;1.17;;
85871;SDS011;76390;44.082;3.046;2024-02-23T04:40:28;4.85;;;1.23;;
85871;SDS011;76390;44.082;3.046;2024-02-23T04:42:54;3.80;;;1.10;;
85871;SDS011;76390;44.082;3.046;2024-02-23T04:45:19;4.93;;;0.88;;
85871;SDS011;76390;44.082;3.046;2024-02-23T04:47:45;3.05;;;1.40;;
85871;SDS011;76390;44.082;3.046;2024-02-23T04:50:13;4.60;;;1.65;;
85871;SDS011;76390;44.082;3.046;2024-02-23T04:52:39;6.10;;;1.13;;
85871;SDS011;76390;44.082;3.046;2024-02-23T04:55:04;7.18;;;1.50;;
85871;SDS011;76390;44.082;3.046;2024-02-23T04:57:31;9.90;;;2.00;;
85871;SDS011;76390;44.082;3.046;2024-02-23T04:59:56;7.00;;;1.45;;
85871;SDS011;76390;44.082;3.046;2024-02-23T05:02:22;7.80;;;1.20;;
85871;SDS011;76390;44.082;3.046;2024-02-23T05:04:47;9.90;;;1.48;;
85871;SDS011;76390;44.082;3.046;2024-02-23T05:07:13;8.05;;;1.83;;
85871;SDS011;76390;44.082;3.046;2024-02-23T05:09:38;8.77;;;1.30;;
85871;SDS011;76390;44.082;3.046;2024-02-23T05:12:06;8.20;;;1.33;;
85871;SDS011;76390;44.082;3.046;2024-02-23T05:14:32;8.95;;;1.38;;
85871;SDS011;76390;44.082;3.046;2024-02-23T05:16:58;10.45;;;1.77;;
85871;SDS011;76390;44.082;3.046;2024-02-23T05:19:23;7.03;;;1.50;;
85871;SDS011;76390;44.082;3.046;2024-02-23T05:21:49;5.75;;;1.00;;
85871;SDS011;76390;44.082;3.046;2024-02-23T05:24:14;6.55;;;1.60;;
85871;SDS011;76390;44.082;3.046;2024-02-23T05:26:40;6.88;;;1.50;;
85871;SDS011;76390;44.082;3.046;2024-02-23T05:29:06;6.28;;;1.60;;
85871;SDS011;76390;44.082;3.046;2024-02-23T05:31:48;5.63;;;1.42;;
85871;SDS011;76390;44.082;3.046;2024-02-23T05:34:15;5.47;;;1.75;;
85871;SDS011;76390;44.082;3.046;2024-02-23T05:36:40;10.13;;;1.58;;
85871;SDS011;76390;44.082;3.046;2024-02-23T05:39:06;8.93;;;1.50;;
85871;SDS011;76390;44.082;3.046;2024-02-23T05:41:33;7.57;;;1.58;;
85871;SDS011;76390;44.082;3.046;2024-02-23T05:43:58;6.97;;;1.17;;
85871;SDS011;76390;44.082;3.046;2024-02-23T05:46:24;10.55;;;1.65;;
85871;SDS011;76390;44.082;3.046;2024-02-23T05:48:49;7.20;;;1.90;;
85871;SDS011;76390;44.082;3.046;2024-02-23T05:51:15;4.20;;;1.08;;
85871;SDS011;76390;44.082;3.046;2024-02-23T05:53:40;2.00;;;0.80;;
85871;SDS011;76390;44.082;3.046;2024-02-23T05:56:06;2.95;;;0.85;;
85871;SDS011;76390;44.082;3.046;2024-02-23T05:58:31;9.88;;;1.50;;
85871;SDS011;76390;44.082;3.046;2024-02-23T06:00:57;7.07;;;1.35;;
85871;SDS011;76390;44.082;3.046;2024-02-23T06:03:22;4.43;;;1.20;;
85871;SDS011;76390;44.082;3.046;2024-02-23T06:05:48;6.75;;;1.50;;
85871;SDS011;76390;44.082;3.046;2024-02-23T06:08:13;2.47;;;0.60;;
85871;SDS011;76390;44.082;3.046;2024-02-23T06:10:39;1.15;;;0.45;;
85871;SDS011;76390;44.082;3.046;2024-02-23T06:13:04;4.63;;;1.52;;
85871;SDS011;76390;44.082;3.046;2024-02-23T06:15:30;3.80;;;0.82;;
85871;SDS011;76390;44.082;3.046;2024-02-23T06:17:55;4.13;;;0.90;;
85871;SDS011;76390;44.082;3.046;2024-02-23T06:20:20;0.75;;;0.43;;
85871;SDS011;76390;44.082;3.046;2024-02-23T06:22:46;3.83;;;1.38;;
85871;SDS011;76390;44.082;3.046;2024-02-23T06:25:11;2.40;;;0.80;;
85871;SDS011;76390;44.082;3.046;2024-02-23T06:27:37;3.45;;;0.80;;
85871;SDS011;76390;44.082;3.046;2024-02-23T06:30:03;4.90;;;0.80;;
85871;SDS011;76390;44.082;3.046;2024-02-23T06:32:29;1.67;;;0.73;;
85871;SDS011;76390;44.082;3.046;2024-02-23T06:34:55;5.88;;;1.08;;
85871;SDS011;76390;44.082;3.046;2024-02-23T06:37:20;4.20;;;0.90;;
85871;SDS011;76390;44.082;3.046;2024-02-23T06:39:46;7.32;;;0.98;;
85871;SDS011;76390;44.082;3.046;2024-02-23T06:42:16;3.33;;;1.00;;
85871;SDS011;76390;44.082;3.046;2024-02-23T06:44:41;1.98;;;0.60;;
85871;SDS011;76390;44.082;3.046;2024-02-23T06:47:07;4.32;;;0.70;;
85871;SDS011;76390;44.082;3.046;2024-02-23T06:49:32;1.40;;;0.43;;
85871;SDS011;76390;44.082;3.046;2024-02-23T06:51:58;1.35;;;0.63;;
85871;SDS011;76390;44.082;3.046;2024-02-23T06:54:23;5.30;;;2.05;;
85871;SDS011;76390;44.082;3.046;2024-02-23T06:56:49;8.25;;;1.50;;
85871;SDS011;76390;44.082;3.046;2024-02-23T06:59:14;3.80;;;2.53;;
85871;SDS011;76390;44.082;3.046;2024-02-23T07:01:49;4.45;;;1.15;;
85871;SDS011;76390;44.082;3.046;2024-02-23T07:04:15;6.97;;;2.60;;
85871;SDS011;76390;44.082;3.046;2024-02-23T07:06:40;7.00;;;2.40;;
85871;SDS011;76390;44.082;3.046;2024-02-23T07:09:06;11.90;;;4.50;;
85871;SDS011;76390;44.082;3.046;2024-02-23T07:11:31;19.75;;;6.85;;
85871;SDS011;76390;44.082;3.046;2024-02-23T07:13:57;34.35;;;12.57;;
85871;SDS011;76390;44.082;3.046;2024-02-23T07:16:22;19.02;;;7.30;;
85871;SDS011;76390;44.082;3.046;2024-02-23T07:18:48;9.55;;;3.47;;
85871;SDS011;76390;44.082;3.046;2024-02-23T07:21:13;11.35;;;4.18;;
85871;SDS011;76390;44.082;3.046;2024-02-23T07:23:39;3.40;;;1.30;;
85871;SDS011;76390;44.082;3.046;2024-02-23T07:26:04;5.65;;;1.65;;
85871;SDS011;76390;44.082;3.046;2024-02-23T07:28:30;1.75;;;0.70;;
85871;SDS011;76390;44.082;3.046;2024-02-23T07:30:55;3.90;;;1.13;;
85871;SDS011;76390;44.082;3.046;2024-02-23T07:33:21;1.80;;;0.80;;
85871;SDS011;76390;44.082;3.046;2024-02-23T07:35:46;1.98;;;0.70;;
85871;SDS011;76390;44.082;3.046;2024-02-23T07:38:12;4.88;;;0.98;;
85871;SDS011;76390;44.082;3.046;2024-02-23T07:40:37;0.88;;;0.43;;
85871;SDS011;76390;44.082;3.046;2024-02-23T07:43:03;1.30;;;0.60;;
85871;SDS011;76390;44.082;3.046;2024-02-23T07:45:29;2.35;;;0.57;;
85871;SDS011;76390;44.082;3.046;2024-02-23T07:47:55;1.73;;;0.52;;
85871;SDS011;76390;44.082;3.046;2024-02-23T07:50:20;3.70;;;1.20;;
85871;SDS011;76390;44.082;3.046;2024-02-23T07:52:46;2.88;;;1.52;;
85871;SDS011;76390;44.082;3.046;2024-02-23T07:55:11;2.50;;;0.60;;
85871;SDS011;76390;44.082;3.046;2024-02-23T07:57:37;1.48;;;0.85;;
85871;SDS011;76390;44.082;3.046;2024-02-23T08:00:05;2.05;;;0.60;;
85871;SDS011;76390;44.082;3.046;2024-02-23T08:02:32;4.82;;;2.20;;
85871;SDS011;76390;44.082;3.046;2024-02-23T08:04:58;1.83;;;1.25;;
85871;SDS011;76390;44.082;3.046;2024-02-23T08:07:23;4.88;;;2.60;;
85871;SDS011;76390;44.082;3.046;2024-02-23T08:09:50;7.20;;;4.05;;
85871;SDS011;76390;44.082;3.046;2024-02-23T08:12:16;2.25;;;1.33;;
85871;SDS011;76390;44.082;3.046;2024-02-23T08:14:41;1.40;;;0.50;;
85871;SDS011;76390;44.082;3.046;2024-02-23T08:17:07;1.85;;;0.70;;
85871;SDS011;76390;44.082;3.046;2024-02-23T08:19:33;1.40;;;0.93;;
85871;SDS011;76390;44.082;3.046;2024-02-23T08:21:58;1.52;;;0.73;;
85871;SDS011;76390;44.082;3.046;2024-02-23T08:24:23;1.08;;;0.57;;
85871;SDS011;76390;44.082;3.046;2024-02-23T08:26:51;0.50;;;0.50;;
85871;SDS011;76390;44.082;3.046;2024-02-23T08:29:16;0.85;;;0.35;;
85871;SDS011;76390;44.082;3.046;2024-02-23T08:31:42;1.70;;;0.80;;
85871;SDS011;76390;44.082;3.046;2024-02-23T08:34:07;4.60;;;1.05;;
85871;SDS011;76390;44.082;3.046;2024-02-23T08:36:33;2.63;;;0.98;;
85871;SDS011;76390;44.082;3.046;2024-02-23T08:38:58;2.45;;;1.50;;
85871;SDS011;76390;44.082;3.046;2024-02-23T08:41:24;2.53;;;1.17;;
85871;SDS011;76390;44.082;3.046;2024-02-23T08:43:49;4.05;;;1.85;;
85871;SDS011;76390;44.082;3.046;2024-02-23T08:46:15;2.55;;;0.73;;
85871;SDS011;76390;44.082;3.046;2024-02-23T08:48:40;1.25;;;0.50;;
85871;SDS011;76390;44.082;3.046;2024-02-23T08:51:06;1.58;;;0.57;;
85871;SDS011;76390;44.082;3.046;2024-02-23T08:53:31;1.80;;;0.40;;
85871;SDS011;76390;44.082;3.046;2024-02-23T08:55:57;0.52;;;0.38;;
85871;SDS011;76390;44.082;3.046;2024-02-23T08:58:22;1.17;;;0.73;;
85871;SDS011;76390;44.082;3.046;2024-02-23T09:00:48;0.43;;;0.43;;
85871;SDS011;76390;44.082;3.046;2024-02-23T09:03:13;0.25;;;0.20;;
85871;SDS011;76390;44.082;3.046;2024-02-23T09:05:39;0.38;;;0.38;;
85871;SDS011;76390;44.082;3.046;2024-02-23T09:08:06;0.10;;;0.10;;
85871;SDS011;76390;44.082;3.046;2024-02-23T09:10:31;0.20;;;0.20;;
85871;SDS011;76390;44.082;3.046;2024-02-23T09:12:57;0.50;;;0.43;;
85871;SDS011;76390;44.082;3.046;2024-02-23T09:15:22;1.38;;;0.70;;
85871;SDS011;76390;44.082;3.046;2024-02-23T09:17:48;1.20;;;0.93;;
85871;SDS011;76390;44.082;3.046;2024-02-23T09:20:13;1.85;;;0.77;;
85871;SDS011;76390;44.082;3.046;2024-02-23T09:22:39;3.70;;;0.50;;
85871;SDS011;76390;44.082;3.046;2024-02-23T09:25:05;1.75;;;0.60;;
85871;SDS011;76390;44.082;3.046;2024-02-23T09:27:31;0.70;;;0.55;;
85871;SDS011;76390;44.082;3.046;2024-02-23T09:29:57;0.43;;;0.43;;
85871;SDS011;76390;44.082;3.046;2024-02-23T09:32:24;0.38;;;0.35;;
85871;SDS011;76390;44.082;3.046;2024-02-23T09:34:49;0.95;;;0.60;;
85871;SDS011;76390;44.082;3.046;2024-02-23T09:37:15;1.65;;;0.52;;
85871;SDS011;76390;44.082;3.046;2024-02-23T09:39:40;0.30;;;0.30;;
85871;SDS011;76390;44.082;3.046;2024-02-23T09:42:09;1.65;;;0.38;;
85871;SDS011;76390;44.082;3.046;2024-02-23T09:44:36;1.05;;;0.55;;
85871;SDS011;76390;44.082;3.046;2024-02-23T09:47:02;2.90;;;1.25;;
85871;SDS011;76390;44.082;3.046;2024-02-23T09:49:35;2.17;;;0.90;;
85871;SDS011;76390;44.082;3.046;2024-02-23T09:52:03;1.33;;;0.90;;
85871;SDS011;76390;44.082;3.046;2024-02-23T09:54:31;3.00;;;1.17;;
85871;SDS011;76390;44.082;3.046;2024-02-23T09:56:56;0.70;;;0.40;;
85871;SDS011;76390;44.082;3.046;2024-02-23T09:59:22;1.38;;;0.45;;
85871;SDS011;76390;44.082;3.046;2024-02-23T10:01:47;2.75;;;0.70;;
85871;SDS011;76390;44.082;3.046;2024-02-23T10:04:13;1.05;;;0.90;;
85871;SDS011;76390;44.082;3.046;2024-02-23T10:06:39;0.40;;;0.40;;
85871;SDS011;76390;44.082;3.046;2024-02-23T10:09:05;0.57;;;0.45;;
85871;SDS011;76390;44.082;3.046;2024-02-23T10:11:30;0.65;;;0.30;;
85871;SDS011;76390;44.082;3.046;2024-02-23T10:13:56;4.03;;;1.20;;
85871;SDS011;76390;44.082;3.046;2024-02-23T10:16:22;2.20;;;1.65;;
85871;SDS011;76390;44.082;3.046;2024-02-23T10:18:48;0.50;;;0.50;;
85871;SDS011;76390;44.082;3.046;2024-02-23T10:21:17;0.60;;;0.60;;
85871;SDS011;76390;44.082;3.046;2024-02-23T10:23:46;1.67;;;0.80;;
85871;SDS011;76390;44.082;3.046;2024-02-23T10:26:12;2.50;;;1.13;;
85871;SDS011;76390;44.082;3.046;2024-02-23T10:28:38;0.88;;;0.52;;
85871;SDS011;76390;44.082;3.046;2024-02-23T10:31:04;2.95;;;1.35;;
85871;SDS011;76390;44.082;3.046;2024-02-23T10:33:32;5.80;;;3.08;;
85871;SDS011;76390;44.082;3.046;2024-02-23T10:35:59;1.90;;;1.23;;
85871;SDS011;76390;44.082;3.046;2024-02-23T10:38:29;3.40;;;1.85;;
85871;SDS011;76390;44.082;3.046;2024-02-23T10:40:57;0.40;;;0.40;;
85871;SDS011;76390;44.082;3.046;2024-02-23T10:43:33;1.60;;;1.20;;
85871;SDS011;76390;44.082;3.046;2024-02-23T10:45:59;3.97;;;1.92;;
85871;SDS011;76390;44.082;3.046;2024-02-23T10:48:28;4.88;;;3.03;;
85871;SDS011;76390;44.082;3.046;2024-02-23T10:50:55;1.10;;;0.90;;
85871;SDS011;76390;44.082;3.046;2024-02-23T10:53:21;3.70;;;1.42;;
85871;SDS011;76390;44.082;3.046;2024-02-23T10:55:47;3.15;;;2.28;;
85871;SDS011;76390;44.082;3.046;2024-02-23T10:58:13;2.60;;;1.50;;
85871;SDS011;76390;44.082;3.046;2024-02-23T11:00:39;3.90;;;1.80;;
85871;SDS011;76390;44.082;3.046;2024-02-23T11:03:05;0.30;;;0.30;;
85871;SDS011;76390;44.082;3.046;2024-02-23T11:05:32;2.22;;;0.40;;
85871;SDS011;76390;44.082;3.046;2024-02-23T11:07:58;0.50;;;0.50;;
85871;SDS011;76390;44.082;3.046;2024-02-23T11:10:24;0.40;;;0.40;;
85871;SDS011;76390;44.082;3.046;2024-02-23T11:12:59;1.08;;;0.60;;
85871;SDS011;76390;44.082;3.046;2024-02-23T11:15:25;0.63;;;0.63;;
85871;SDS011;76390;44.082;3.046;2024-02-23T11:17:52;1.38;;;0.95;;
85871;SDS011;76390;44.082;3.046;2024-02-23T11:20:17;0.40;;;0.30;;
85871;SDS011;76390;44.082;3.046;2024-02-23T11:22:43;1.35;;;0.75;;
85871;SDS011;76390;44.082;3.046;2024-02-23T11:25:08;3.53;;;0.60;;
85871;SDS011;76390;44.082;3.046;2024-02-23T11:27:35;1.40;;;0.80;;
85871;SDS011;76390;44.082;3.046;2024-02-23T11:30:08;2.35;;;0.80;;
85871;SDS011;76390;44.082;3.046;2024-02-23T11:32:43;0.80;;;0.38;;
85871;SDS011;76390;44.082;3.046;2024-02-23T11:35:12;1.25;;;0.57;;
85871;SDS011;76390;44.082;3.046;2024-02-23T11:40:12;2.95;;;1.20;;
85871;SDS011;76390;44.082;3.046;2024-02-23T11:42:38;2.35;;;1.35;;
85871;SDS011;76390;44.082;3.046;2024-02-23T11:45:06;0.40;;;0.40;;
85871;SDS011;76390;44.082;3.046;2024-02-23T11:47:32;1.05;;;0.90;;
85871;SDS011;76390;44.082;3.046;2024-02-23T11:49:57;0.68;;;0.68;;
85871;SDS011;76390;44.082;3.046;2024-02-23T11:52:23;0.25;;;0.25;;
85871;SDS011;76390;44.082;3.046;2024-02-23T11:54:48;0.85;;;0.50;;
85871;SDS011;76390;44.082;3.046;2024-02-23T11:57:13;0.43;;;0.43;;
85871;SDS011;76390;44.082;3.046;2024-02-23T11:59:40;0.85;;;0.40;;
85871;SDS011;76390;44.082;3.046;2024-02-23T12:02:06;2.33;;;0.20;;
85871;SDS011;76390;44.082;3.046;2024-02-23T12:04:32;3.22;;;0.40;;
85871;SDS011;76390;44.082;3.046;2024-02-23T12:06:58;0.57;;;0.40;;
85871;SDS011;76390;44.082;3.046;2024-02-23T12:09:24;1.33;;;0.82;;
85871;SDS011;76390;44.082;3.046;2024-02-23T12:11:50;3.25;;;0.75;;
85871;SDS011;76390;44.082;3.046;2024-02-23T12:14:15;0.40;;;0.40;;
85871;SDS011;76390;44.082;3.046;2024-02-23T12:16:41;0.63;;;0.43;;
85871;SDS011;76390;44.082;3.046;2024-02-23T12:19:07;1.25;;;0.43;;
85871;SDS011;76390;44.082;3.046;2024-02-23T12:21:36;2.53;;;1.02;;
85871;SDS011;76390;44.082;3.046;2024-02-23T12:24:05;2.03;;;0.70;;
85871;SDS011;76390;44.082;3.046;2024-02-23T12:26:33;0.30;;;0.30;;
85871;SDS011;76390;44.082;3.046;2024-02-23T12:29:02;3.05;;;0.98;;
85871;SDS011;76390;44.082;3.046;2024-02-23T12:31:28;3.10;;;0.55;;
85871;SDS011;76390;44.082;3.046;2024-02-23T12:33:54;0.88;;;0.63;;
85871;SDS011;76390;44.082;3.046;2024-02-23T12:36:22;0.70;;;0.40;;
85871;SDS011;76390;44.082;3.046;2024-02-23T12:38:48;3.00;;;0.80;;
85871;SDS011;76390;44.082;3.046;2024-02-23T12:41:13;2.53;;;1.30;;
85871;SDS011;76390;44.082;3.046;2024-02-23T12:43:39;2.55;;;0.93;;
85871;SDS011;76390;44.082;3.046;2024-02-23T12:46:05;3.90;;;1.25;;
85871;SDS011;76390;44.082;3.046;2024-02-23T12:48:31;1.50;;;0.80;;
85871;SDS011;76390;44.082;3.046;2024-02-23T12:50:57;2.47;;;1.70;;
85871;SDS011;76390;44.082;3.046;2024-02-23T12:56:06;2.58;;;0.90;;
85871;SDS011;76390;44.082;3.046;2024-02-23T12:58:36;2.08;;;0.55;;
85871;SDS011;76390;44.082;3.046;2024-02-23T13:01:02;3.35;;;0.70;;
85871;SDS011;76390;44.082;3.046;2024-02-23T13:03:28;2.88;;;0.60;;
85871;SDS011;76390;44.082;3.046;2024-02-23T13:05:54;2.13;;;0.60;;
85871;SDS011;76390;44.082;3.046;2024-02-23T13:08:20;3.58;;;0.63;;
85871;SDS011;76390;44.082;3.046;2024-02-23T13:10:47;3.17;;;0.75;;
85871;SDS011;76390;44.082;3.046;2024-02-23T13:13:12;1.50;;;0.73;;
85871;SDS011;76390;44.082;3.046;2024-02-23T13:15:40;0.82;;;0.57;;
85871;SDS011;76390;44.082;3.046;2024-02-23T13:18:06;2.72;;;0.68;;
85871;SDS011;76390;44.082;3.046;2024-02-23T13:20:32;3.30;;;1.67;;
85871;SDS011;76390;44.082;3.046;2024-02-23T13:22:57;4.55;;;2.20;;
85871;SDS011;76390;44.082;3.046;2024-02-23T13:25:23;5.40;;;1.85;;
85871;SDS011;76390;44.082;3.046;2024-02-23T13:27:48;1.58;;;0.90;;
85871;SDS011;76390;44.082;3.046;2024-02-23T13:30:15;1.05;;;0.95;;
85871;SDS011;76390;44.082;3.046;2024-02-23T13:32:40;0.70;;;0.40;;
85871;SDS011;76390;44.082;3.046;2024-02-23T13:35:06;2.10;;;0.63;;
85871;SDS011;76390;44.082;3.046;2024-02-23T13:37:33;1.92;;;0.70;;
85871;SDS011;76390;44.082;3.046;2024-02-23T13:39:59;1.67;;;0.88;;
85871;SDS011;76390;44.082;3.046;2024-02-23T13:42:25;1.70;;;0.95;;
85871;SDS011;76390;44.082;3.046;2024-02-23T13:44:50;0.93;;;0.65;;
85871;SDS011;76390;44.082;3.046;2024-02-23T13:47:16;1.10;;;0.38;;
85871;SDS011;76390;44.082;3.046;2024-02-23T13:49:42;1.42;;;0.55;;
85871;SDS011;76390;44.082;3.046;2024-02-23T13:52:07;2.20;;;0.88;;
85871;SDS011;76390;44.082;3.046;2024-02-23T13:54:33;1.17;;;0.47;;
85871;SDS011;76390;44.082;3.046;2024-02-23T13:56:58;2.25;;;0.52;;
85871;SDS011;76390;44.082;3.046;2024-02-23T13:59:24;1.50;;;0.50;;
85871;SDS011;76390;44.082;3.046;2024-02-23T14:01:49;2.28;;;0.80;;
85871;SDS011;76390;44.082;3.046;2024-02-23T14:04:15;0.63;;;0.60;;
85871;SDS011;76390;44.082;3.046;2024-02-23T14:06:42;2.20;;;0.90;;
85871;SDS011;76390;44.082;3.046;2024-02-23T14:09:08;0.52;;;0.52;;
85871;SDS011;76390;44.082;3.046;2024-02-23T14:11:34;0.50;;;0.50;;
85871;SDS011;76390;44.082;3.046;2024-02-23T14:14:00;3.05;;;0.45;;
85871;SDS011;76390;44.082;3.046;2024-02-23T14:16:25;1.05;;;0.63;;
85871;SDS011;76390;44.082;3.046;2024-02-23T14:18:51;1.35;;;0.63;;
85871;SDS011;76390;44.082;3.046;2024-02-23T14:21:16;3.55;;;0.70;;
85871;SDS011;76390;44.082;3.046;2024-02-23T14:23:43;1.05;;;0.55;;
85871;SDS011;76390;44.082;3.046;2024-02-23T14:26:09;0.55;;;0.40;;
85871;SDS011;76390;44.082;3.046;2024-02-23T14:28:35;1.20;;;0.80;;
85871;SDS011;76390;44.082;3.046;2024-02-23T14:31:00;1.90;;;0.82;;
85871;SDS011;76390;44.082;3.046;2024-02-23T14:33:26;1.23;;;0.43;;
85871;SDS011;76390;44.082;3.046;2024-02-23T14:35:51;0.50;;;0.50;;
85871;SDS011;76390;44.082;3.046;2024-02-23T14:38:17;2.50;;;0.50;;
85871;SDS011;76390;44.082;3.046;2024-02-23T14:40:42;1.23;;;0.63;;
85871;SDS011;76390;44.082;3.046;2024-02-23T14:43:08;1.35;;;0.77;;
85871;SDS011;76390;44.082;3.046;2024-02-23T14:45:35;3.70;;;0.63;;